Time;durP1;ratioP1;P1;durP2;ratioP2;P2;SDS_P1;SDS_P2;PMS_P1;PMS_P2;Temp;Humidity;BMP_temperature;BMP_pressure;BME280_temperature;BME280_humidity;BME280_pressure;Samples;Min_cycle;Max_cycle;Signal;HPM_P1;HPM_P2
2022/01/27 05:06:37;;;;;;;21.77;13.50;;;;;;;5.58;56.82;101348.97;5583645;31;33383;-58
2022/01/27 05:09:49;;;;;;;19.15;12.68;;;;;;;5.28;57.33;101353.41;5583579;32;33541;-58
2022/01/27 05:12:55;;;;;;;18.70;12.63;;;;;;;5.10;57.37;101367.47;5583693;32;34522;-58
2022/01/27 05:15:57;;;;;;;18.95;12.20;;;;;;;4.97;57.82;101371.09;5583284;32;33611;-58
2022/01/27 05:19:04;;;;;;;20.20;13.30;;;;;;;4.99;57.86;101353.06;5583664;32;34281;-59
2022/01/27 05:22:06;;;;;;;18.67;12.70;;;;;;;4.97;57.59;101356.97;5583552;31;33558;-58
2022/01/27 05:25:09;;;;;;;21.30;13.02;;;;;;;4.96;58.73;101358.81;5583633;31;33691;-59
2022/01/27 05:28:11;;;;;;;18.67;12.48;;;;;;;5.10;57.71;101351.53;5583314;32;34176;-58
2022/01/27 05:31:14;;;;;;;20.40;12.85;;;;;;;5.01;58.06;101366.97;5583280;31;34247;-58
2022/01/27 05:34:16;;;;;;;22.58;13.93;;;;;;;5.09;57.61;101360.53;5583256;32;33572;-59
2022/01/27 05:37:18;;;;;;;21.98;14.25;;;;;;;4.88;58.47;101359.91;5582907;32;33682;-58
2022/01/27 05:40:20;;;;;;;19.00;12.18;;;;;;;5.05;59.26;101357.50;5583202;32;33650;-58
2022/01/27 05:43:23;;;;;;;20.73;12.93;;;;;;;5.02;58.15;101352.63;5582459;31;33603;-58
2022/01/27 05:46:25;;;;;;;19.90;13.25;;;;;;;4.87;58.25;101338.91;5563687;32;33656;-59
2022/01/27 05:49:28;;;;;;;21.17;13.07;;;;;;;4.92;58.50;101337.19;5563594;32;34409;-58
2022/01/27 05:52:31;;;;;;;20.90;13.10;;;;;;;4.73;58.79;101330.19;5563533;32;33224;-58
2022/01/27 05:55:33;;;;;;;21.80;13.65;;;;;;;4.66;58.80;101327.59;5563646;32;33762;-58
2022/01/27 05:58:35;;;;;;;21.77;13.35;;;;;;;4.89;58.56;101324.34;5563403;32;33835;-58
2022/01/27 06:01:38;;;;;;;19.85;13.35;;;;;;;5.05;60.48;101325.63;5563060;32;34285;-58
2022/01/27 06:04:40;;;;;;;21.17;14.02;;;;;;;5.59;66.37;101329.28;5563261;32;34409;-58
2022/01/27 06:07:45;;;;;;;20.83;14.55;;;;;;;5.62;57.35;101333.38;5564902;32;33658;-58
2022/01/27 06:10:47;;;;;;;24.12;15.95;;;;;;;5.51;56.86;101337.59;5563496;32;34416;-59
2022/01/27 06:13:49;;;;;;;24.27;15.15;;;;;;;5.62;60.28;101317.41;5555282;32;33640;-59
2022/01/27 06:16:52;;;;;;;23.65;16.10;;;;;;;5.51;58.47;101321.63;5550197;32;34431;-58
2022/01/27 06:20:02;;;;;;;22.10;14.70;;;;;;;5.02;58.34;101317.28;5554664;32;33827;-58
2022/01/27 06:23:04;;;;;;;24.00;15.70;;;;;;;5.21;58.10;101331.41;5568498;32;32334;-58
2022/01/27 06:26:08;;;;;;;23.75;16.48;;;;;;;5.13;58.91;101320.03;5560604;32;33591;-58
2022/01/27 06:29:11;;;;;;;23.48;15.88;;;;;;;4.76;64.60;101336.94;5567205;32;34264;-59
2022/01/27 06:32:13;;;;;;;26.27;16.05;;;;;;;4.84;59.00;101337.47;5568549;32;34285;-58
2022/01/27 06:35:15;;;;;;;25.42;16.48;;;;;;;4.94;59.61;101339.63;5569437;32;34305;-57
2022/01/27 06:38:17;;;;;;;24.10;15.80;;;;;;;4.78;59.22;101343.66;5556255;32;33651;-58
2022/01/27 06:41:20;;;;;;;26.15;16.62;;;;;;;4.86;59.28;101345.22;5561262;32;33584;-58
2022/01/27 06:44:26;;;;;;;26.50;16.73;;;;;;;4.82;59.57;101354.66;5567841;31;33589;-58
2022/01/27 06:47:28;;;;;;;23.08;15.52;;;;;;;4.65;59.53;101357.88;5562336;32;34373;-58
2022/01/27 06:50:36;;;;;;;20.62;13.45;;;;;;;4.67;59.89;101363.78;5549920;32;33887;-58
2022/01/27 06:53:41;;;;;;;22.37;14.45;;;;;;;4.41;61.48;101380.72;5568096;32;33911;-57
2022/01/27 06:56:45;;;;;;;23.33;15.18;;;;;;;4.54;60.31;101379.81;5567707;32;33623;-58
2022/01/27 06:59:47;;;;;;;24.37;14.82;;;;;;;4.68;65.97;101384.00;5567923;32;34404;-58
2022/01/27 07:02:49;;;;;;;25.25;14.45;;;;;;;4.87;61.55;101384.06;5567910;32;33705;-58
2022/01/27 07:05:52;;;;;;;24.10;14.32;;;;;;;4.92;59.59;101374.38;5568982;32;33601;-59
2022/01/27 07:08:54;;;;;;;23.15;14.20;;;;;;;4.75;59.66;101368.00;5567481;32;33669;-58
2022/01/27 07:11:57;;;;;;;23.80;15.52;;;;;;;4.77;59.58;101365.13;5549690;32;34248;-59
2022/01/27 07:14:59;;;;;;;22.33;14.27;;;;;;;5.01;59.99;101379.44;5563910;32;34385;-58
2022/01/27 07:18:02;;;;;;;20.80;13.48;;;;;;;4.99;59.11;101373.53;5559770;32;33889;-58
2022/01/27 07:21:04;;;;;;;23.15;14.95;;;;;;;5.07;64.74;101370.59;5549899;32;34260;-58
2022/01/27 07:24:08;;;;;;;24.00;14.63;;;;;;;5.19;59.28;101368.81;5566919;32;33593;-58
2022/01/27 07:27:10;;;;;;;26.30;15.52;;;;;;;5.16;58.48;101372.72;5568229;32;33632;-59
2022/01/27 07:30:12;;;;;;;26.45;15.68;;;;;;;5.25;58.42;101364.47;5567925;32;34045;-59
2022/01/27 07:33:14;;;;;;;24.12;15.35;;;;;;;5.06;59.02;101361.78;5569125;32;34281;-58
2022/01/27 07:36:18;;;;;;;26.23;16.05;;;;;;;5.06;58.46;101353.00;5551084;32;33559;-58
2022/01/27 07:39:20;;;;;;;25.40;14.52;;;;;;;5.08;58.82;101341.13;5549757;32;33589;-58
2022/01/27 07:42:22;;;;;;;23.58;14.82;;;;;;;5.07;59.23;101344.81;5549406;32;33846;-58
2022/01/27 07:45:25;;;;;;;20.80;13.38;;;;;;;5.09;59.06;101342.75;5549558;32;33233;-58
2022/01/27 07:48:28;;;;;;;24.67;15.82;;;;;;;5.11;58.91;101339.88;5549227;32;33718;-58
2022/01/27 07:51:30;;;;;;;28.90;15.75;;;;;;;5.09;58.71;101333.97;5549458;32;34276;-58
2022/01/27 07:54:33;;;;;;;22.40;15.10;;;;;;;5.23;59.06;101339.94;5549285;32;33639;-58
2022/01/27 07:57:35;;;;;;;22.67;14.77;;;;;;;5.08;58.49;101330.50;5549212;32;33602;-59
2022/01/27 08:00:39;;;;;;;24.20;14.85;;;;;;;5.18;58.58;101324.66;5549000;32;33320;-58
2022/01/27 08:03:41;;;;;;;25.50;14.90;;;;;;;5.21;59.13;101336.72;5562933;32;34423;-58
2022/01/27 08:06:43;;;;;;;24.52;14.85;;;;;;;5.14;59.23;101328.81;5567303;32;33207;-58
2022/01/27 08:09:47;;;;;;;24.08;14.87;;;;;;;5.35;58.33;101327.56;5568654;32;33523;-59
2022/01/27 08:12:50;;;;;;;23.92;14.85;;;;;;;5.17;58.68;101331.03;5568148;32;34183;-58
2022/01/27 08:15:53;;;;;;;23.48;14.75;;;;;;;5.08;58.85;101322.53;5568941;32;33731;-59
2022/01/27 08:19:15;;;;;;;24.65;13.90;;;;;;;5.06;59.32;101321.13;5568523;32;33911;-59
2022/01/27 08:22:18;;;;;;;23.58;15.02;;;;;;;5.25;59.27;101332.56;5568633;32;33678;-58
2022/01/27 08:25:24;;;;;;;21.08;13.75;;;;;;;5.42;58.57;101328.28;5568645;32;33682;-59
2022/01/27 08:28:31;;;;;;;19.45;13.02;;;;;;;5.53;57.62;101324.06;5560506;32;34396;-58
2022/01/27 08:31:43;;;;;;;23.55;14.35;;;;;;;5.36;59.13;101327.34;5558441;32;33627;-61
2022/01/27 08:34:46;;;;;;;22.83;13.82;;;;;;;5.26;58.80;101326.22;5549026;32;34054;-60
2022/01/27 08:37:49;;;;;;;24.73;14.27;;;;;;;5.12;59.00;101323.69;5549059;32;33703;-60
2022/01/27 08:40:51;;;;;;;24.83;15.32;;;;;;;5.31;58.35;101327.19;5555342;32;33772;-61
2022/01/27 08:43:55;;;;;;;25.30;14.05;;;;;;;5.49;58.00;101325.53;5560380;32;34222;-60
2022/01/27 08:47:02;;;;;;;23.10;13.73;;;;;;;5.38;58.34;101327.91;5568291;32;33749;-61
2022/01/27 08:50:06;;;;;;;24.63;14.60;;;;;;;5.28;58.03;101314.34;5568168;32;33331;-61
2022/01/27 08:53:09;;;;;;;28.25;15.02;;;;;;;5.28;58.36;101321.50;5567771;32;33334;-60
2022/01/27 08:56:13;;;;;;;27.20;16.58;;;;;;;5.11;59.77;101314.09;5553146;32;34169;-60
2022/01/27 08:59:16;;;;;;;22.73;13.65;;;;;;;5.17;58.75;101315.09;5554701;32;33795;-60
2022/01/27 09:02:20;;;;;;;22.50;12.88;;;;;;;5.35;57.96;101309.75;5566254;32;33816;-60
2022/01/27 09:05:23;;;;;;;26.12;13.82;;;;;;;5.48;57.71;101311.44;5561297;32;33598;-61
2022/01/27 09:08:27;;;;;;;24.05;14.65;;;;;;;5.55;58.97;101300.72;5566897;32;33642;-61
2022/01/27 09:11:31;;;;;;;22.40;12.93;;;;;;;5.53;57.68;101308.94;5564210;32;33816;-60
2022/01/27 09:14:33;;;;;;;21.62;13.70;;;;;;;5.57;57.76;101307.44;5559664;32;34266;-59
2022/01/27 09:17:39;;;;;;;20.98;13.57;;;;;;;5.63;57.27;101316.38;5566265;32;34306;-61
2022/01/27 09:20:43;;;;;;;23.27;13.43;;;;;;;5.73;57.83;101314.00;5548208;32;33636;-61
2022/01/27 09:23:47;;;;;;;20.80;13.13;;;;;;;5.67;56.38;101330.84;5548095;32;33267;-60
2022/01/27 09:26:53;;;;;;;24.40;14.48;;;;;;;5.61;57.49;101329.91;5561726;32;33607;-60
2022/01/27 09:29:55;;;;;;;24.80;15.43;;;;;;;5.60;56.80;101319.50;5566940;32;33652;-61
2022/01/27 09:32:58;;;;;;;19.77;12.15;;;;;;;5.55;58.07;101332.63;5566805;32;33938;-60
2022/01/27 09:36:00;;;;;;;20.30;11.80;;;;;;;5.32;57.29;101333.31;5558180;32;33634;-61
2022/01/27 09:39:03;;;;;;;25.10;13.60;;;;;;;5.21;58.04;101332.22;5567118;32;33909;-60
2022/01/27 09:42:06;;;;;;;25.83;13.40;;;;;;;5.23;58.30;101332.81;5567072;32;33662;-61
2022/01/27 09:45:09;;;;;;;21.95;13.00;;;;;;;5.26;57.69;101326.22;5567073;32;34166;-60
2022/01/27 09:48:16;;;;;;;22.65;12.45;;;;;;;5.14;58.12;101318.19;5568157;32;34188;-60
2022/01/27 09:54:21;;;;;;;28.55;13.62;;;;;;;5.42;58.61;101313.12;5569615;32;33728;-60
2022/01/27 09:57:24;;;;;;;23.17;13.62;;;;;;;5.62;56.97;101317.41;5569342;32;34243;-60
2022/01/27 10:00:26;;;;;;;21.73;12.90;;;;;;;5.81;56.96;101312.88;5569711;32;34275;-60
2022/01/27 10:03:30;;;;;;;28.05;13.90;;;;;;;6.07;56.22;101323.19;5569763;32;33571;-61
2022/01/27 10:06:35;;;;;;;19.50;12.73;;;;;;;6.08;55.38;101322.13;5569955;32;33269;-60
2022/01/27 10:09:37;;;;;;;18.83;11.60;;;;;;;6.03;56.38;101314.03;5569889;32;33858;-60
2022/01/27 10:12:47;;;;;;;21.40;12.63;;;;;;;5.98;54.84;101305.09;5559508;32;33726;-61
2022/01/27 10:15:50;;;;;;;20.75;12.25;;;;;;;6.09;55.49;101306.97;5570008;32;33693;-59
2022/01/27 10:19:03;;;;;;;22.13;13.23;;;;;;;6.05;54.58;101300.47;5554286;32;34221;-60
2022/01/27 10:22:11;;;;;;;18.62;12.32;;;;;;;6.09;55.08;101291.81;5549983;32;33792;-61
2022/01/27 10:25:20;;;;;;;19.33;12.07;;;;;;;6.02;55.48;101285.75;5549893;32;33381;-61
2022/01/27 10:28:34;;;;;;;22.23;11.93;;;;;;;5.86;54.76;101263.25;5552865;32;33613;-60
2022/01/27 10:31:39;;;;;;;22.67;12.98;;;;;;;5.62;55.13;101265.00;5569272;32;33611;-60
2022/01/27 10:34:59;;;;;;;20.48;12.55;;;;;;;5.60;55.89;101248.47;5563366;32;34461;-61
2022/01/27 10:38:06;;;;;;;20.77;12.85;;;;;;;5.62;55.13;101250.91;5549787;32;34321;-60
2022/01/27 10:41:08;;;;;;;19.48;12.13;;;;;;;5.55;55.46;101239.53;5549852;32;33793;-60
2022/01/27 10:44:16;;;;;;;21.80;13.10;;;;;;;5.57;55.79;101232.97;5568390;32;33654;-60
2022/01/27 10:47:23;;;;;;;18.27;11.70;;;;;;;5.81;55.36;101233.84;5569167;32;33607;-60
2022/01/27 10:50:25;;;;;;;22.40;13.02;;;;;;;5.89;56.96;101228.22;5568530;32;34381;-60
2022/01/27 10:53:42;;;;;;;18.95;11.48;;;;;;;6.04;56.26;101219.81;5569195;32;33959;-60
2022/01/27 10:56:44;;;;;;;22.58;13.00;;;;;;;6.15;55.53;101212.87;5568993;32;33608;-60
2022/01/27 11:00:04;;;;;;;21.60;12.13;;;;;;;6.07;54.52;101213.22;5568785;32;34435;-61
2022/01/27 11:03:08;;;;;;;24.15;14.07;;;;;;;6.16;54.44;101213.69;5564830;32;34320;-60
2022/01/27 11:06:11;;;;;;;24.45;13.52;;;;;;;6.22;54.39;101210.09;5560064;32;33440;-61
2022/01/27 11:09:13;;;;;;;23.27;13.52;;;;;;;6.27;54.21;101207.56;5559596;32;34034;-60
2022/01/27 11:12:17;;;;;;;23.55;13.57;;;;;;;6.23;53.81;101207.22;5568805;32;33599;-60
2022/01/27 11:15:21;;;;;;;23.08;14.10;;;;;;;6.25;54.24;101196.34;5568502;32;33707;-60
2022/01/27 11:18:25;;;;;;;24.42;14.07;;;;;;;6.47;53.90;101192.06;5559806;32;33663;-60
2022/01/27 11:21:34;;;;;;;24.00;13.65;;;;;;;6.42;54.48;101197.25;5568331;32;34011;-60
2022/01/27 11:28:08;;;;;;;21.12;13.15;;;;;;;6.41;53.56;101189.50;5538916;31;34354;-61
2022/01/27 11:31:48;;;;;;;25.30;14.55;;;;;;;6.46;54.42;101190.44;5568034;32;34385;-61
2022/01/27 11:34:53;;;;;;;21.25;13.55;;;;;;;6.39;53.88;101181.75;5556294;32;33669;-60
2022/01/27 11:38:00;;;;;;;18.10;11.88;;;;;;;6.37;54.30;101175.84;5549205;32;34298;-59
2022/01/27 11:41:03;;;;;;;24.85;14.85;;;;;;;6.39;53.40;101163.13;5548845;32;33792;-61
2022/01/27 11:44:24;;;;;;;23.30;14.02;;;;;;;6.57;54.22;101165.63;5535038;32;33704;-60
2022/01/27 11:47:32;;;;;;;23.48;14.02;;;;;;;6.49;52.91;101155.34;5554947;32;33494;-61
2022/01/27 11:53:53;;;;;;;24.37;14.87;;;;;;;6.88;53.72;101131.59;5568207;32;34320;-61
2022/01/27 11:56:55;;;;;;;23.50;15.23;;;;;;;6.91;53.22;101135.66;5558847;32;33794;-60
2022/01/27 12:00:08;;;;;;;24.95;16.12;;;;;;;6.93;52.24;101138.91;5562372;32;33672;-60
2022/01/27 12:03:13;;;;;;;22.00;14.23;;;;;;;6.93;53.48;101131.72;5567405;32;34268;-60
2022/01/27 12:06:19;;;;;;;28.23;15.15;;;;;;;6.82;53.52;101132.56;5562707;32;33293;-59
2022/01/27 12:09:21;;;;;;;23.92;14.70;;;;;;;7.20;53.29;101123.16;5566852;32;32532;-58
2022/01/27 12:12:30;;;;;;;27.95;16.75;;;;;;;7.39;56.89;101124.56;5568001;32;33332;-58
2022/01/27 12:15:32;;;;;;;26.98;15.73;;;;;;;7.44;51.89;101131.84;5569518;32;33793;-58
2022/01/27 12:18:36;;;;;;;25.05;15.43;;;;;;;7.09;53.05;101132.03;5556258;32;34569;-58
2022/01/27 12:21:40;;;;;;;29.70;17.60;;;;;;;7.12;53.13;101134.19;5560695;32;33633;-58
2022/01/27 12:25:03;;;;;;;27.52;16.80;;;;;;;7.15;52.41;101128.37;5565263;32;34773;-58
2022/01/27 12:28:05;;;;;;;27.30;16.30;;;;;;;7.21;53.92;101119.41;5565611;32;34329;-58
2022/01/27 12:31:07;;;;;;;30.17;16.83;;;;;;;7.28;54.16;101104.06;5564496;32;33728;-57
2022/01/27 12:34:12;;;;;;;26.50;15.95;;;;;;;7.48;54.67;101100.94;5562384;32;33656;-58
2022/01/27 12:37:18;;;;;;;27.50;16.80;;;;;;;7.62;51.37;101096.94;5559399;32;33759;-58
2022/01/27 12:40:26;;;;;;;26.00;16.63;;;;;;;7.48;51.80;101101.78;5570421;32;34266;-58
2022/01/27 12:43:29;;;;;;;26.65;16.70;;;;;;;7.42;51.63;101088.59;5567847;32;33641;-57
2022/01/27 12:46:31;;;;;;;30.92;17.52;;;;;;;7.45;52.03;101077.41;5572815;32;34554;-57
2022/01/27 12:49:40;;;;;;;32.38;16.92;;;;;;;7.49;52.66;101081.25;5572861;32;33871;-58
2022/01/27 12:52:45;;;;;;;28.87;16.85;;;;;;;7.48;56.55;101077.78;5569969;32;34007;-58
2022/01/27 12:55:49;;;;;;;29.80;16.93;;;;;;;7.53;55.34;101072.50;5574143;32;33970;-57
2022/01/27 12:58:51;;;;;;;31.80;17.92;;;;;;;7.62;53.76;101069.44;5568517;32;33932;-58
2022/01/27 13:02:06;;;;;;;27.70;17.65;;;;;;;7.52;52.05;101064.75;5556975;32;33781;-57
2022/01/27 13:05:10;;;;;;;31.50;17.85;;;;;;;7.59;51.80;101051.25;5564986;32;33600;-58
2022/01/27 13:08:16;;;;;;;27.75;17.48;;;;;;;7.56;51.64;101044.53;5564701;32;33950;-58
2022/01/27 13:11:18;;;;;;;28.00;17.67;;;;;;;7.50;51.46;101046.31;5564774;32;34498;-57
2022/01/27 13:14:21;;;;;;;29.95;19.35;;;;;;;7.61;53.37;101025.91;5565714;32;34600;-58
2022/01/27 13:17:33;;;;;;;31.65;19.00;;;;;;;7.82;52.32;101023.56;5563274;32;33840;-58
2022/01/27 13:20:53;;;;;;;24.85;16.65;;;;;;;8.03;52.35;101014.75;5571620;32;33978;-58
2022/01/27 13:24:04;;;;;;;30.08;19.02;;;;;;;8.09;55.94;101013.78;5565353;32;34347;-58
2022/01/27 13:27:09;;;;;;;27.33;16.55;;;;;;;7.99;51.18;101006.44;5566583;32;34471;-58
2022/01/27 13:30:12;;;;;;;30.05;18.33;;;;;;;8.00;52.27;101025.94;5564895;32;33834;-58
2022/01/27 13:33:17;;;;;;;29.02;17.60;;;;;;;7.75;51.43;101013.06;5561827;32;34492;-59
2022/01/27 13:36:22;;;;;;;30.62;17.17;;;;;;;8.13;52.68;101012.22;5556593;32;34011;-58
2022/01/27 13:42:31;;;;;;;30.17;18.85;;;;;;;8.09;51.68;101003.09;5556537;32;34098;-60
2022/01/27 13:45:35;;;;;;;30.23;18.92;;;;;;;8.11;51.79;101002.84;5556368;32;33389;-60
2022/01/27 13:48:43;;;;;;;30.08;18.77;;;;;;;8.20;53.17;100998.69;5556495;32;33367;-60
2022/01/27 13:51:55;;;;;;;34.50;18.98;;;;;;;8.29;57.14;100997.19;5556258;32;34003;-60
2022/01/27 13:55:06;;;;;;;29.55;18.27;;;;;;;8.18;53.27;100982.91;5556566;32;33831;-61
2022/01/27 13:58:09;;;;;;;33.25;19.48;;;;;;;8.34;56.72;100978.53;5556323;32;33828;-60
2022/01/27 14:01:13;;;;;;;31.65;18.85;;;;;;;8.21;53.73;100969.06;5555573;32;34822;-60
2022/01/27 14:04:43;;;;;;;34.47;19.73;;;;;;;8.28;52.87;100968.03;5559211;32;33832;-60
2022/01/27 14:07:52;;;;;;;31.75;19.87;;;;;;;8.24;55.87;100973.06;5575416;32;33298;-58
2022/01/27 14:10:55;;;;;;;34.50;19.42;;;;;;;8.16;53.01;100957.50;5575983;32;34107;-59
2022/01/27 14:13:59;;;;;;;34.72;19.70;;;;;;;8.03;52.96;100963.22;5575118;32;34041;-58
2022/01/27 14:17:03;;;;;;;32.97;19.58;;;;;;;8.05;52.60;100950.44;5570421;32;33824;-57
2022/01/27 14:20:13;;;;;;;34.55;20.20;;;;;;;8.13;54.19;100952.66;5568863;32;34372;-58
2022/01/27 14:23:24;;;;;;;30.75;20.05;;;;;;;8.10;53.39;100945.94;5574056;32;33787;-58
2022/01/27 14:29:35;;;;;;;33.40;21.12;;;;;;;7.94;53.59;100942.28;5557977;32;33736;-58
2022/01/27 14:32:39;;;;;;;32.10;18.85;;;;;;;8.19;55.53;100946.31;5571062;32;34336;-57
2022/01/27 14:35:42;;;;;;;35.13;21.02;;;;;;;8.28;56.21;100952.00;5565004;32;33938;-57
2022/01/27 14:38:45;;;;;;;34.55;20.73;;;;;;;8.18;52.99;100931.38;5563027;32;34427;-58
2022/01/27 14:41:47;;;;;;;35.40;21.87;;;;;;;8.03;53.42;100934.66;5553260;32;33711;-58
2022/01/27 14:44:50;;;;;;;38.78;24.02;;;;;;;8.14;54.17;100925.69;5553414;32;33345;-58
2022/01/27 14:47:59;;;;;;;35.75;23.02;;;;;;;8.00;57.56;100925.28;5555763;32;33771;-58
2022/01/27 14:51:01;;;;;;;35.88;21.58;;;;;;;8.13;55.37;100916.06;5572160;32;33921;-58
2022/01/27 14:54:05;;;;;;;37.75;22.83;;;;;;;8.28;57.06;100914.63;5569423;32;33962;-58
2022/01/27 14:57:10;;;;;;;38.15;24.90;;;;;;;8.05;53.97;100931.75;5569419;32;33779;-57
2022/01/27 15:00:16;;;;;;;37.35;22.80;;;;;;;8.08;54.08;100932.06;5571195;32;33471;-58
2022/01/27 15:03:18;;;;;;;37.72;24.17;;;;;;;7.88;59.17;100924.63;5571363;32;33942;-57
2022/01/27 15:06:21;;;;;;;36.58;23.02;;;;;;;7.98;55.71;100924.75;5571703;32;34563;-57
2022/01/27 15:09:23;;;;;;;33.65;21.37;;;;;;;7.90;55.64;100924.34;5569101;32;33973;-58
2022/01/27 15:12:25;;;;;;;42.35;23.83;;;;;;;7.95;63.62;100913.75;5563658;32;33726;-58
2022/01/27 15:18:49;;;;;;;32.17;20.88;;;;;;;8.20;62.32;100906.00;5571865;32;34494;-58
2022/01/27 15:21:51;;;;;;;36.00;21.17;;;;;;;8.08;56.96;100896.50;5570429;32;33748;-58
2022/01/27 15:24:54;;;;;;;38.13;21.62;;;;;;;8.09;59.16;100890.13;5558706;32;33868;-57
2022/01/27 15:27:56;;;;;;;35.40;22.58;;;;;;;7.92;56.71;100898.22;5560438;32;33807;-58
2022/01/27 15:31:00;;;;;;;34.53;20.98;;;;;;;7.81;53.29;100889.28;5573416;32;33982;-57
2022/01/27 15:34:02;;;;;;;28.67;19.37;;;;;;;7.85;53.74;100892.28;5571266;32;33763;-58
2022/01/27 15:37:04;;;;;;;30.23;19.65;;;;;;;7.86;53.24;100886.69;5563398;32;34197;-58
2022/01/27 15:40:10;;;;;;;34.22;20.15;;;;;;;7.87;55.92;100884.81;5569911;32;33835;-58
2022/01/27 15:43:21;;;;;;;27.58;17.90;;;;;;;7.60;53.58;100885.56;5573939;32;33850;-58
2022/01/27 15:46:25;;;;;;;30.77;18.98;;;;;;;7.76;65.01;100891.91;5572326;32;33448;-57
2022/01/27 15:49:28;;;;;;;32.58;19.87;;;;;;;7.55;53.94;100880.16;5573739;32;33696;-58
2022/01/27 15:52:33;;;;;;;29.65;19.50;;;;;;;7.58;55.69;100885.00;5574055;32;34662;-58
2022/01/27 15:55:36;;;;;;;30.48;19.67;;;;;;;7.63;54.55;100870.91;5572542;32;34458;-58
2022/01/27 15:58:38;;;;;;;28.27;18.70;;;;;;;7.56;53.95;100878.31;5574207;32;33608;-58
2022/01/27 16:01:40;;;;;;;24.95;16.30;;;;;;;7.56;54.13;100879.09;5574124;32;33658;-56
2022/01/27 16:04:43;;;;;;;30.08;19.92;;;;;;;7.51;63.27;100873.69;5569048;32;34357;-56
2022/01/27 16:07:48;;;;;;;25.33;17.08;;;;;;;7.51;53.87;100868.34;5568903;32;34280;-56
2022/01/27 16:10:51;;;;;;;26.23;18.95;;;;;;;7.57;63.28;100863.91;5568738;32;33598;-56
2022/01/27 16:13:53;;;;;;;27.62;19.33;;;;;;;7.45;54.04;100861.34;5568740;32;34493;-55
2022/01/27 16:16:56;;;;;;;33.22;19.10;;;;;;;7.37;54.98;100862.59;5569116;32;33458;-56
2022/01/27 16:19:58;;;;;;;29.50;19.62;;;;;;;7.34;59.49;100855.06;5568576;32;34246;-56
2022/01/27 16:23:00;;;;;;;31.27;20.55;;;;;;;7.20;54.47;100867.97;5568790;32;34462;-56
2022/01/27 16:26:03;;;;;;;25.02;17.05;;;;;;;7.32;53.92;100859.88;5567907;32;33928;-56
2022/01/27 16:29:06;;;;;;;25.62;17.90;;;;;;;7.25;63.35;100864.53;5568677;32;33611;-56
2022/01/27 16:32:08;;;;;;;26.45;18.45;;;;;;;7.17;56.28;100860.44;5568493;32;33799;-56
2022/01/27 16:35:11;;;;;;;23.05;15.77;;;;;;;7.13;55.07;100864.66;5568465;32;34402;-56
2022/01/27 16:38:13;;;;;;;26.67;17.83;;;;;;;7.20;63.99;100851.97;5567698;32;33575;-56
2022/01/27 16:41:16;;;;;;;28.80;18.92;;;;;;;7.23;55.44;100848.81;5568558;32;33611;-57
2022/01/27 16:44:18;;;;;;;42.97;31.65;;;;;;;7.38;56.47;100848.19;5567925;32;33694;-56
2022/01/27 16:47:21;;;;;;;36.55;25.42;;;;;;;7.48;59.63;100845.69;5568586;32;34432;-56
